首页
METAR-TAF:

METAR-TAF

机场 :

Elsenborn

比辰巴赫, 比利时

纬度: 50-28N, 经度: 006-11E, 海拔: 564米

当前天气观测

该预报发布于6小时和53分钟前的05:19 UTC
风速7节,风向西
温度 13°C
湿度 88%
气压 1013 hPa
能见度10公里或以上

METAR: EBLB 200519Z AUTO 26007KT 9999 OVC008/// 13/11 Q1013 GRN

时间: 14:12 (12:12 UTC)


TAF: 丢失

超过4000个机场的气象观测和天气预报(METAR&TAF报告)。

可查询的气象台以黄色和红色小点在地图上表示。

将鼠标移到小点上方,可查看气象台名称。

然后点击查看天气观测和预报。

如需切换地图:点击带黑十字的绿色按钮放大地图;点击带横线的绿色按钮缩小地图;或者点击绿色箭头查看邻近地区的地图。


METAR-TAF: